Time;durP1;ratioP1;P1;durP2;ratioP2;P2;SDS_P1;SDS_P2;PMS_P1;PMS_P2;Temp;Humidity;BMP_temperature;BMP_pressure;BME280_temperature;BME280_humidity;BME280_pressure;Samples;Min_cycle;Max_cycle;Signal;HPM_P1;HPM_P2
2021/12/14 00:03:12;;;;;;;27.50;16.33;;;;;;;1.08;59.12;100778.12;7632815;32;37350;-78
2021/12/14 00:07:29;;;;;;;24.58;15.13;;;;;;;0.98;59.65;100772.19;7632205;32;39479;-78
2021/12/14 00:16:01;;;;;;;27.55;15.68;;;;;;;1.45;58.25;100779.03;7632464;32;38587;-78
2021/12/14 00:20:38;;;;;;;29.17;16.33;;;;;;;1.34;58.72;100779.50;7632676;32;36979;-78
2021/12/14 00:24:56;;;;;;;25.83;14.60;;;;;;;1.24;59.15;100776.28;7632703;32;39019;-78
2021/12/14 00:29:19;;;;;;;30.83;17.00;;;;;;;1.33;59.19;100775.19;7632450;32;40008;-78
2021/12/14 00:33:36;;;;;;;29.45;16.27;;;;;;;1.24;59.42;100778.97;7632229;32;38697;-79
2021/12/14 00:37:54;;;;;;;27.87;15.55;;;;;;;1.15;59.97;100769.34;7632322;32;37448;-78
2021/12/14 00:42:10;;;;;;;27.23;15.98;;;;;;;0.93;59.42;100777.28;7632346;32;39351;-78
2021/12/14 00:46:27;;;;;;;28.60;15.15;;;;;;;0.87;59.22;100781.56;7632217;32;40743;-78
2021/12/14 00:50:47;;;;;;;26.77;15.50;;;;;;;0.75;59.11;100775.78;7632148;32;37974;-78
2021/12/14 00:55:08;;;;;;;25.25;15.57;;;;;;;0.69;59.50;100789.97;7632137;32;36963;-78
2021/12/14 00:59:25;;;;;;;28.30;15.65;;;;;;;0.63;59.87;100790.69;7632177;32;39256;-78
2021/12/14 01:03:44;;;;;;;30.98;15.73;;;;;;;0.93;59.21;100796.09;7631977;32;40814;-78
2021/12/14 01:08:02;;;;;;;29.83;16.85;;;;;;;0.72;59.53;100797.62;7631951;32;37925;-78
2021/12/14 01:12:31;;;;;;;31.62;17.12;;;;;;;1.06;59.19;100798.97;7631984;32;37085;-79
2021/12/14 01:17:06;;;;;;;33.80;17.62;;;;;;;0.72;60.78;100804.84;7631827;32;39026;-78
2021/12/14 01:25:52;;;;;;;30.55;17.25;;;;;;;0.69;62.03;100805.22;7631863;32;38668;-78
2021/12/14 01:30:19;;;;;;;29.90;15.65;;;;;;;0.49;62.56;100829.06;7631690;32;37241;-78
2021/12/14 01:34:36;;;;;;;31.12;17.05;;;;;;;0.36;61.62;100826.97;7631566;32;39365;-78
2021/12/14 01:43:51;;;;;;;30.15;15.80;;;;;;;0.47;60.19;100817.69;7606002;32;37886;-77
2021/12/14 01:48:07;;;;;;;30.20;16.05;;;;;;;0.67;59.57;100807.25;7631498;32;37219;-78
2021/12/14 01:52:30;;;;;;;25.50;15.43;;;;;;;0.61;59.64;100803.44;7631253;32;39495;-78
2021/12/14 01:56:46;;;;;;;;;;;;;;;0.64;59.82;100797.72;7631449;32;39963;-78
2021/12/14 02:01:10;;;;;;;31.33;16.77;;;;;;;0.57;60.77;100791.44;7631202;32;38302;-79
2021/12/14 02:05:31;;;;;;;27.27;15.32;;;;;;;0.72;60.99;100794.94;7629819;32;38255;-78
2021/12/14 02:09:55;;;;;;;34.55;18.48;;;;;;;0.66;61.20;100793.00;7630732;32;39272;-78
2021/12/14 02:14:12;;;;;;;30.67;16.20;;;;;;;0.50;62.23;100795.81;7630700;32;40599;-77
2021/12/14 02:18:29;;;;;;;33.67;17.90;;;;;;;0.74;61.28;100797.44;7630695;32;38814;-78
2021/12/14 02:22:46;;;;;;;32.22;17.50;;;;;;;0.57;62.10;100807.53;7630560;32;37165;-78
2021/12/14 02:27:02;;;;;;;33.35;17.27;;;;;;;0.68;62.28;100804.38;7630446;32;39478;-78
2021/12/14 02:31:22;;;;;;;36.28;17.95;;;;;;;0.57;62.75;100812.91;7630785;32;40079;-78
2021/12/14 02:35:38;;;;;;;32.15;17.08;;;;;;;1.11;61.55;100799.25;7633703;32;38815;-78
2021/12/14 02:40:13;;;;;;;33.55;17.00;;;;;;;1.03;62.19;100793.13;7633764;32;37909;-78
2021/12/14 02:44:30;;;;;;;31.05;16.90;;;;;;;0.54;63.51;100802.50;7633679;32;39941;-78
2021/12/14 02:48:49;;;;;;;36.15;19.08;;;;;;;1.06;61.69;100804.34;7633566;32;39897;-78
2021/12/14 02:53:05;;;;;;;33.55;17.33;;;;;;;0.51;63.40;100803.69;7633709;32;37729;-77
2021/12/14 02:57:25;;;;;;;29.83;17.40;;;;;;;1.04;61.58;100792.97;7633438;32;37030;-78
2021/12/14 03:01:42;;;;;;;29.60;16.75;;;;;;;0.98;61.96;100800.91;7633586;32;39989;-78
2021/12/14 03:06:00;;;;;;;38.67;18.92;;;;;;;1.07;61.90;100797.13;7633143;32;40835;-78
2021/12/14 03:14:57;;;;;;;32.25;18.87;;;;;;;1.18;63.23;100807.41;7632206;32;37217;-78
2021/12/14 03:19:13;;;;;;;31.55;16.73;;;;;;;1.15;63.25;100812.31;7633371;32;39109;-78
2021/12/14 03:23:34;;;;;;;35.78;17.67;;;;;;;0.87;64.01;100824.50;7633281;32;39735;-78
2021/12/14 03:27:52;;;;;;;38.80;17.80;;;;;;;1.15;62.59;100805.09;7633120;32;38683;-78
2021/12/14 03:32:08;;;;;;;37.97;18.48;;;;;;;1.35;61.77;100805.38;7633260;32;37343;-79
2021/12/14 03:36:34;;;;;;;42.85;18.40;;;;;;;0.89;63.48;100816.28;7633027;32;40101;-79
2021/12/14 03:41:04;;;;;;;38.25;20.10;;;;;;;1.16;62.71;100804.06;7633051;32;40137;-78
2021/12/14 03:45:20;;;;;;;35.05;19.73;;;;;;;1.23;62.87;100796.13;7632013;32;37652;-78
2021/12/14 03:49:44;;;;;;;45.53;21.15;;;;;;;0.82;64.19;100809.97;7633047;32;37400;-79
2021/12/14 03:54:00;;;;;;;;;;;;;;;0.72;65.21;100802.16;7633277;32;40015;-78
2021/12/14 03:58:22;;;;;;;40.50;20.17;;;;;;;1.03;64.09;100798.50;7633102;32;40979;-78
2021/12/14 04:02:38;;;;;;;47.25;20.12;;;;;;;1.09;63.88;100795.09;7632758;32;38395;-79
2021/12/14 04:06:57;;;;;;;46.17;21.27;;;;;;;1.05;64.23;100800.00;7632549;32;38073;-80
2021/12/14 04:11:15;;;;;;;39.35;20.85;;;;;;;1.15;64.16;100793.50;7619488;32;39101;-78
2021/12/14 04:15:32;;;;;;;42.92;20.25;;;;;;;1.05;65.04;100800.00;7632540;32;39758;-78
2021/12/14 04:19:48;;;;;;;43.83;21.50;;;;;;;1.21;63.59;100806.19;7632509;32;37888;-79
2021/12/14 04:24:07;;;;;;;110.22;47.83;;;;;;;1.37;63.01;100802.50;7632547;32;37292;-79
2021/12/14 04:28:26;;;;;;;86.65;38.35;;;;;;;1.18;64.16;100806.59;7632583;32;38261;-78
2021/12/14 04:32:50;;;;;;;80.40;34.88;;;;;;;1.08;64.17;100807.69;7632398;32;39998;-78
2021/12/14 04:37:06;;;;;;;61.90;26.35;;;;;;;1.01;64.42;100812.12;7632353;32;37923;-78
2021/12/14 04:55:21;;;;;;;47.65;23.05;;;;;;;1.26;64.55;100812.69;7631551;32;38793;-78
2021/12/14 04:59:37;;;;;;;97.03;22.90;;;;;;;1.00;65.91;100818.53;7632123;32;37434;-78
2021/12/14 05:03:59;;;;;;;46.95;21.75;;;;;;;1.38;64.68;100814.91;7632070;32;39526;-79
2021/12/14 05:12:34;;;;;;;76.90;25.00;;;;;;;1.62;64.05;100809.25;7632062;32;37870;-78
2021/12/14 05:16:58;;;;;;;119.05;25.48;;;;;;;1.29;65.24;100814.16;7631869;32;37314;-78
2021/12/14 05:21:30;;;;;;;68.32;25.33;;;;;;;1.27;65.67;100818.91;7631962;32;40078;-78
2021/12/14 05:25:46;;;;;;;71.10;22.92;;;;;;;1.20;65.96;100815.28;7631783;32;39893;-78
2021/12/14 05:30:17;;;;;;;74.05;25.00;;;;;;;1.62;64.53;100811.06;7631697;32;38778;-79
2021/12/14 05:34:36;;;;;;;109.55;25.27;;;;;;;1.68;64.26;100818.41;7631576;32;36947;-78
2021/12/14 05:39:03;;;;;;;114.05;25.08;;;;;;;1.84;63.51;100826.22;7631508;32;38295;-78
2021/12/14 05:43:23;;;;;;;72.30;25.33;;;;;;;1.90;63.24;100823.81;7631449;32;39928;-79
2021/12/14 05:47:58;;;;;;;69.10;24.12;;;;;;;1.41;65.21;100833.34;7631332;32;37932;-78
2021/12/14 05:52:26;;;;;;;77.75;26.65;;;;;;;1.77;64.53;100829.87;7631254;32;37327;-79
2021/12/14 05:56:42;;;;;;;76.47;24.17;;;;;;;1.32;66.10;100837.97;7631206;32;40068;-78
2021/12/14 06:01:05;;;;;;;78.12;26.92;;;;;;;1.56;65.32;100833.34;7631037;32;40009;-78
2021/12/14 06:05:22;;;;;;;127.12;27.52;;;;;;;1.39;66.01;100833.53;7629911;32;38566;-78
2021/12/14 06:09:46;;;;;;;68.47;23.90;;;;;;;1.65;65.01;100833.03;7632533;32;37943;-77
2021/12/14 06:14:03;;;;;;;75.30;25.37;;;;;;;2.04;65.95;100831.84;7633177;32;40206;-78
2021/12/14 06:18:23;;;;;;;109.78;26.40;;;;;;;2.52;69.24;100823.22;7633939;32;39695;-78
2021/12/14 06:22:41;;;;;;;82.15;24.48;;;;;;;2.52;65.53;100831.28;7633763;32;37775;-79
2021/12/14 06:27:00;;;;;;;152.27;26.90;;;;;;;2.51;63.99;100829.63;7633927;32;38574;-78
2021/12/14 06:31:22;;;;;;;82.95;24.60;;;;;;;2.09;64.40;100833.97;7633888;32;38233;-77
2021/12/14 06:35:47;;;;;;;68.22;24.48;;;;;;;2.33;63.56;100829.22;7633745;32;39978;-78
2021/12/14 06:40:10;;;;;;;93.57;26.83;;;;;;;2.20;63.66;100828.06;7633717;32;37709;-78
2021/12/14 06:44:27;;;;;;;62.88;24.15;;;;;;;1.84;65.16;100842.38;7633729;32;37921;-79
2021/12/14 06:48:50;;;;;;;69.60;24.30;;;;;;;2.20;64.06;100840.69;7633608;32;40251;-79
2021/12/14 06:53:11;;;;;;;54.13;18.40;;;;;;;2.20;64.47;100843.41;7633570;32;39959;-80
2021/12/14 06:57:28;;;;;;;49.83;17.40;;;;;;;2.17;64.42;100854.53;7633453;32;37827;-78
2021/12/14 07:01:53;;;;;;;29.33;15.77;;;;;;;2.32;63.90;100843.72;7633378;32;38028;-78
2021/12/14 07:06:13;;;;;;;40.10;13.48;;;;;;;2.15;64.85;100849.34;7633229;32;40147;-78
2021/12/14 07:10:38;;;;;;;43.20;15.30;;;;;;;2.42;63.92;100844.25;7633389;32;39918;-78
2021/12/14 07:14:54;;;;;;;35.08;15.68;;;;;;;2.37;63.99;100852.06;7632060;32;38078;-79
2021/12/14 07:19:10;;;;;;;39.85;15.25;;;;;;;2.34;64.08;100855.13;7633119;32;37274;-78
2021/12/14 07:23:35;;;;;;;42.42;15.57;;;;;;;2.45;64.18;100865.41;7633296;32;40207;-79
2021/12/14 07:28:12;;;;;;;38.30;14.93;;;;;;;2.43;64.18;100857.50;7633240;32;39601;-77
2021/12/14 07:32:49;;;;;;;32.45;15.00;;;;;;;2.57;63.69;100866.53;7633092;32;38283;-79
2021/12/14 07:37:05;;;;;;;36.55;14.87;;;;;;;2.49;63.96;100855.91;7633001;32;37205;-79
2021/12/14 07:41:33;;;;;;;34.97;15.02;;;;;;;2.47;63.87;100852.56;7633030;32;39367;-79
2021/12/14 07:45:51;;;;;;;39.65;15.25;;;;;;;2.43;63.68;100857.50;7632952;32;40771;-79
2021/12/14 07:50:07;;;;;;;37.80;16.37;;;;;;;2.41;63.04;100853.34;7632814;32;38102;-79
2021/12/14 07:54:27;;;;;;;36.90;18.15;;;;;;;2.30;63.20;100857.37;7632978;32;37522;-79
2021/12/14 07:58:47;;;;;;;29.48;14.15;;;;;;;2.33;63.23;100858.84;7632829;32;39428;-79
2021/12/14 08:03:05;;;;;;;36.25;14.13;;;;;;;2.67;62.29;100857.31;7632708;32;40964;-79
2021/12/14 08:07:45;;;;;;;45.85;14.82;;;;;;;2.68;61.91;100858.97;7632429;32;37994;-79
2021/12/14 08:12:03;;;;;;;32.42;15.18;;;;;;;2.42;62.66;100852.31;7632765;32;36884;-79
2021/12/14 08:16:19;;;;;;;42.83;14.40;;;;;;;2.32;63.24;100854.50;7632562;32;39136;-79
2021/12/14 08:20:44;;;;;;;44.17;16.45;;;;;;;2.45;63.18;100860.00;7632511;32;39867;-79
2021/12/14 08:25:03;;;;;;;41.05;16.40;;;;;;;2.48;63.61;100865.00;7632508;32;38085;-78
2021/12/14 08:29:24;;;;;;;37.78;15.65;;;;;;;2.67;63.17;100862.69;7631765;32;37220;-79
2021/12/14 08:33:41;;;;;;;51.90;16.48;;;;;;;2.53;63.44;100865.25;7632372;32;39320;-79
2021/12/14 08:38:02;;;;;;;212.07;20.73;;;;;;;2.42;63.94;100871.16;7632294;32;39648;-78
2021/12/14 08:42:27;;;;;;;56.45;17.67;;;;;;;2.33;64.15;100867.75;7632312;32;38051;-79
2021/12/14 08:46:44;;;;;;;351.73;26.55;;;;;;;2.27;64.48;100871.19;7632388;32;36938;-79
2021/12/14 08:51:02;;;;;;;221.05;22.50;;;;;;;2.40;64.07;100863.28;7632375;32;39390;-78
2021/12/14 08:55:22;;;;;;;75.97;18.35;;;;;;;2.54;63.36;100866.94;7632245;32;39154;-80
2021/12/14 08:59:41;;;;;;;77.18;18.70;;;;;;;2.28;63.96;100869.34;7632200;32;37780;-78
2021/12/14 09:04:11;;;;;;;417.35;30.27;;;;;;;2.44;64.39;100874.50;7632139;32;37199;-79
2021/12/14 09:08:27;;;;;;;105.37;19.87;;;;;;;1.91;66.10;100868.50;7631884;32;40161;-79
2021/12/14 09:12:46;;;;;;;92.82;19.83;;;;;;;2.23;65.34;100876.12;7631919;32;40597;-79
2021/12/14 09:17:04;;;;;;;77.70;18.75;;;;;;;2.51;64.77;100875.38;7631702;32;37400;-79
2021/12/14 09:21:25;;;;;;;143.35;19.95;;;;;;;2.10;66.17;100867.09;7630837;32;37353;-80
2021/12/14 09:25:41;;;;;;;71.32;19.17;;;;;;;2.48;64.54;100867.69;7631836;32;40026;-79
2021/12/14 09:29:59;;;;;;;200.65;22.95;;;;;;;2.97;62.34;100858.81;7631690;32;40559;-79
2021/12/14 09:34:19;;;;;;;49.17;17.58;;;;;;;2.70;63.37;100867.69;7631565;32;37787;-80
2021/12/14 09:38:40;;;;;;;57.17;18.73;;;;;;;2.79;63.68;100861.13;7631488;32;37910;-79
2021/12/14 09:42:57;;;;;;;119.03;19.85;;;;;;;2.72;63.48;100858.38;7631530;32;40126;-79
2021/12/14 09:47:17;;;;;;;231.35;23.83;;;;;;;2.61;64.09;100851.66;7631394;32;40823;-79
2021/12/14 09:51:46;;;;;;;94.40;20.27;;;;;;;2.76;63.11;100845.34;7631319;32;38805;-79
2021/12/14 09:56:03;;;;;;;73.55;18.65;;;;;;;2.92;63.03;100842.41;7631152;32;38097;-79
2021/12/14 10:00:32;;;;;;;108.43;20.20;;;;;;;2.82;64.16;100847.28;7631025;32;40145;-79
2021/12/14 10:04:55;;;;;;;127.18;21.37;;;;;;;2.49;63.71;100838.94;7629926;32;40036;-79
2021/12/14 10:09:16;;;;;;;230.10;23.90;;;;;;;2.27;64.48;100848.84;7630556;32;38845;-79
2021/12/14 10:13:37;;;;;;;316.00;26.20;;;;;;;2.02;65.72;100846.53;7629634;32;38009;-79
2021/12/14 10:17:56;;;;;;;88.95;19.00;;;;;;;1.93;65.98;100847.63;7630877;32;39956;-79
2021/12/14 10:22:21;;;;;;;48.33;19.52;;;;;;;2.67;64.24;100841.97;7630641;32;39039;-79
2021/12/14 10:26:42;;;;;;;195.40;22.52;;;;;;;2.63;64.12;100836.13;7630489;32;38300;-80
2021/12/14 10:31:03;;;;;;;108.28;19.87;;;;;;;2.57;63.63;100838.78;7630426;32;37982;-79
2021/12/14 10:35:24;;;;;;;84.82;20.40;;;;;;;2.49;64.36;100845.12;7629136;32;40098;-79
2021/12/14 10:44:28;;;;;;;160.40;21.50;;;;;;;2.82;63.88;100828.44;7629937;32;38939;-80
2021/12/14 10:48:46;;;;;;;46.08;20.00;;;;;;;2.99;62.16;100819.03;7630008;32;38090;-79
2021/12/14 10:53:06;;;;;;;93.47;20.75;;;;;;;3.04;62.34;100820.31;7631116;32;39367;-79
2021/12/14 10:57:26;;;;;;;88.07;20.15;;;;;;;2.81;63.12;100816.84;7633592;32;40916;-80
2021/12/14 11:01:49;;;;;;;67.75;20.20;;;;;;;2.88;62.56;100826.81;7633462;32;37934;-79
2021/12/14 11:06:12;;;;;;;58.95;21.65;;;;;;;3.15;62.53;100825.12;7633318;32;37155;-79
2021/12/14 11:10:34;;;;;;;257.25;26.83;;;;;;;3.12;63.04;100822.84;7633489;32;39821;-79
2021/12/14 11:14:55;;;;;;;140.30;24.98;;;;;;;2.72;62.97;100819.84;7633258;32;40826;-77
2021/12/14 11:19:11;;;;;;;127.57;22.73;;;;;;;2.90;62.56;100820.22;7633197;32;37747;-78
2021/12/14 11:23:34;;;;;;;139.07;22.37;;;;;;;2.34;63.57;100818.28;7633308;32;36974;-79
2021/12/14 11:28:01;;;;;;;53.20;21.00;;;;;;;2.78;63.36;100811.00;7633201;32;39325;-79
2021/12/14 11:32:23;;;;;;;67.95;17.33;;;;;;;2.91;63.63;100810.25;7632067;32;39611;-79
2021/12/14 11:37:02;;;;;;;40.03;17.37;;;;;;;3.05;62.28;100803.09;7631826;32;37567;-79
2021/12/14 11:41:39;;;;;;;51.55;16.35;;;;;;;3.15;61.88;100806.28;7633052;32;37437;-79
2021/12/14 11:45:57;;;;;;;78.87;17.52;;;;;;;3.22;62.27;100799.06;7633094;32;40124;-79
2021/12/14 11:50:28;;;;;;;51.60;16.95;;;;;;;3.02;61.71;100796.25;7632891;32;40807;-79
2021/12/14 11:54:47;;;;;;;42.78;16.20;;;;;;;2.89;63.03;100797.00;7633377;32;37051;-78
2021/12/14 11:59:06;;;;;;;45.12;18.08;;;;;;;2.89;63.55;100794.28;7632817;32;37722;-79
2021/12/14 12:03:34;;;;;;;39.63;16.67;;;;;;;3.25;62.11;100798.66;7632328;32;40190;-79
2021/12/14 12:12:29;;;;;;;37.63;16.10;;;;;;;2.96;61.90;100787.09;7632044;32;37944;-78
2021/12/14 12:16:46;;;;;;;74.60;20.12;;;;;;;2.84;62.84;100795.91;7627284;32;173517;-78
2021/12/14 12:21:02;;;;;;;44.20;18.77;;;;;;;3.18;61.76;100795.09;7632293;32;39472;-77
2021/12/14 12:25:21;;;;;;;95.62;21.02;;;;;;;3.13;61.92;100801.06;7631780;32;40727;-78
2021/12/14 12:29:37;;;;;;;110.95;21.27;;;;;;;3.08;61.65;100805.41;7632329;32;36840;-78
2021/12/14 12:33:56;;;;;;;176.55;25.58;;;;;;;3.10;62.21;100803.34;7632384;32;37940;-78
2021/12/14 12:38:18;;;;;;;81.43;23.25;;;;;;;3.06;61.69;100808.28;7632355;32;40126;-78
2021/12/14 12:42:35;;;;;;;61.53;21.85;;;;;;;2.54;63.93;100805.00;7632415;32;40040;-78
2021/12/14 12:47:02;;;;;;;91.85;21.10;;;;;;;3.01;62.48;100805.34;7632229;32;37906;-78
2021/12/14 12:51:49;;;;;;;71.85;19.85;;;;;;;3.10;62.32;100795.25;7632274;32;37223;-78
2021/12/14 12:56:13;;;;;;;55.72;20.77;;;;;;;2.87;62.31;100793.66;7632278;32;39101;-79
2021/12/14 13:00:43;;;;;;;67.75;20.10;;;;;;;3.01;62.16;100811.56;7632483;32;39485;-79
2021/12/14 13:05:39;;;;;;;151.90;20.50;;;;;;;3.12;61.78;100801.28;7631779;32;39374;-78
2021/12/14 13:10:05;;;;;;;226.43;25.40;;;;;;;2.62;63.47;100801.34;7632005;32;37390;-79
2021/12/14 13:14:21;;;;;;;154.00;22.37;;;;;;;2.28;64.53;100796.69;7631954;32;39399;-78
2021/12/14 13:19:10;;;;;;;116.50;20.98;;;;;;;2.81;63.38;100786.34;7614575;32;39834;-79
2021/12/14 13:24:03;;;;;;;128.05;21.00;;;;;;;2.57;64.51;100793.00;7631523;32;38862;-78
2021/12/14 13:28:37;;;;;;;151.37;22.62;;;;;;;2.36;64.89;100794.72;7631040;32;37834;-78
2021/12/14 13:32:54;;;;;;;67.75;19.37;;;;;;;2.71;63.99;100793.94;7630238;32;39777;-78
2021/12/14 13:37:12;;;;;;;95.35;20.23;;;;;;;2.52;64.90;100784.69;7631445;32;40782;-78
2021/12/14 13:41:47;;;;;;;45.85;17.02;;;;;;;2.85;63.68;100787.66;7630473;32;38821;-78
2021/12/14 13:46:05;;;;;;;132.27;20.65;;;;;;;2.73;63.27;100783.84;7628813;32;37551;-78
2021/12/14 13:50:28;;;;;;;124.80;21.30;;;;;;;2.63;63.46;100787.69;7604310;32;39329;-79
2021/12/14 13:55:16;;;;;;;132.27;20.25;;;;;;;2.52;63.87;100795.44;7604881;32;40805;-79
2021/12/14 13:59:34;;;;;;;56.83;20.60;;;;;;;2.37;64.12;100788.28;7604368;32;38477;-78
2021/12/14 14:03:56;;;;;;;79.00;20.20;;;;;;;2.36;64.38;100808.19;7604684;32;36987;-78
2021/12/14 14:08:17;;;;;;;;;;;;;;;2.41;63.71;100807.56;7604875;32;39483;-80
2021/12/14 14:12:48;;;;;;;186.48;23.90;;;;;;;2.32;64.24;100808.75;7604389;32;41127;-79
2021/12/14 14:17:07;;;;;;;65.20;20.80;;;;;;;1.88;65.41;100811.41;7596944;32;38640;-80
2021/12/14 14:21:31;;;;;;;92.95;19.60;;;;;;;2.07;64.93;100803.75;7603958;32;36990;-79
2021/12/14 14:25:59;;;;;;;123.68;22.08;;;;;;;2.31;63.93;100820.53;7602957;32;39561;-79
2021/12/14 14:30:24;;;;;;;73.28;20.15;;;;;;;2.06;64.45;100812.84;7607056;32;40926;-78
2021/12/14 14:34:54;;;;;;;138.45;19.70;;;;;;;1.90;64.78;100819.28;7607131;32;38689;-78
2021/12/14 14:39:12;;;;;;;81.90;16.77;;;;;;;1.78;64.87;100820.81;7607014;32;37493;-79
2021/12/14 14:43:56;;;;;;;77.82;18.42;;;;;;;2.04;64.21;100831.03;7607396;32;39283;-79
2021/12/14 14:48:24;;;;;;;60.53;15.73;;;;;;;2.21;63.43;100824.38;7607111;32;40799;-79
2021/12/14 14:52:49;;;;;;;189.50;21.33;;;;;;;2.12;63.42;100828.22;7607314;32;38074;-78
2021/12/14 14:57:08;;;;;;;187.15;19.98;;;;;;;1.82;63.96;100836.34;7607043;32;37015;-78
2021/12/14 15:01:30;;;;;;;183.27;21.12;;;;;;;1.75;63.74;100830.06;7606438;32;39403;-78
2021/12/14 15:06:01;;;;;;;142.50;19.95;;;;;;;1.57;64.38;100830.47;7607212;32;40877;-78
2021/12/14 15:10:20;;;;;;;64.10;17.50;;;;;;;1.52;65.07;100829.34;7606118;32;37657;-78
2021/12/14 15:14:41;;;;;;;110.60;21.00;;;;;;;1.80;64.21;100829.50;7606846;32;38217;-78
2021/12/14 15:18:59;;;;;;;207.00;24.70;;;;;;;1.97;63.97;100819.38;7599292;32;39471;-78
2021/12/14 15:23:23;;;;;;;46.25;19.08;;;;;;;1.88;64.08;100822.16;7606334;32;40040;-78
2021/12/14 15:27:55;;;;;;;161.80;22.45;;;;;;;1.83;64.55;100819.19;7594493;32;37856;-77
2021/12/14 15:32:14;;;;;;;58.60;21.05;;;;;;;1.86;64.32;100829.59;7606410;32;37269;-76
2021/12/14 15:36:31;;;;;;;71.82;21.17;;;;;;;2.20;63.12;100813.78;7607098;32;39513;-77
2021/12/14 15:40:58;;;;;;;41.70;18.75;;;;;;;1.69;64.51;100828.09;7606261;32;40499;-76
2021/12/14 15:45:23;;;;;;;47.62;18.85;;;;;;;1.80;64.33;100824.94;7606239;32;38184;-79
2021/12/14 15:49:39;;;;;;;34.47;16.25;;;;;;;1.69;64.67;100825.44;7606779;32;37220;-77
2021/12/14 15:53:59;;;;;;;62.70;17.52;;;;;;;1.65;64.24;100826.84;7606121;32;39049;-78
2021/12/14 15:58:17;;;;;;;27.13;14.93;;;;;;;1.69;63.35;100823.59;7606450;32;39963;-77
2021/12/14 16:02:36;;;;;;;27.33;15.55;;;;;;;1.81;62.76;100815.88;7606253;32;36962;-75
2021/12/14 16:06:55;;;;;;;31.25;17.55;;;;;;;1.54;62.87;100821.94;7592969;32;37172;-77
2021/12/14 16:11:33;;;;;;;35.92;16.85;;;;;;;1.36;62.80;100825.81;7606136;32;39434;-77
2021/12/14 16:15:50;;;;;;;67.18;18.77;;;;;;;1.57;62.77;100824.25;7605771;32;40862;-77
2021/12/14 16:20:12;;;;;;;76.70;18.08;;;;;;;1.66;61.85;100840.09;7598734;32;37972;-77
2021/12/14 16:24:28;;;;;;;33.85;17.33;;;;;;;1.60;62.67;100840.81;7605698;32;38058;-77
2021/12/14 16:28:48;;;;;;;42.13;17.45;;;;;;;1.63;62.94;100843.16;7606223;32;39438;-78
2021/12/14 16:33:17;;;;;;;59.17;19.58;;;;;;;1.44;63.35;100852.62;7606400;32;39982;-77
2021/12/14 16:37:35;;;;;;;109.47;22.05;;;;;;;1.66;63.03;100845.47;7604253;32;38676;-77
2021/12/14 16:42:07;;;;;;;88.65;22.02;;;;;;;1.50;63.90;100851.03;7606305;32;38246;-77
2021/12/14 16:46:33;;;;;;;70.93;20.23;;;;;;;1.65;63.36;100851.03;7606414;32;38996;-78
2021/12/14 16:50:49;;;;;;;76.97;20.10;;;;;;;1.73;63.37;100847.41;7605727;32;41256;-76
2021/12/14 16:55:19;;;;;;;39.60;17.17;;;;;;;1.87;62.58;100846.53;7606174;32;37777;-77
2021/12/14 16:59:39;;;;;;;32.55;17.67;;;;;;;1.76;62.49;100860.47;7607135;32;37954;-77
2021/12/14 17:04:01;;;;;;;40.78;20.17;;;;;;;1.63;62.45;100856.59;7631785;32;40048;-77
2021/12/14 17:08:20;;;;;;;40.33;19.90;;;;;;;1.60;62.38;100850.75;7631601;32;40733;-77
2021/12/14 17:12:36;;;;;;;42.53;17.45;;;;;;;1.52;62.09;100854.37;7630860;32;38004;-76
2021/12/14 17:17:05;;;;;;;39.42;17.98;;;;;;;1.65;61.45;100851.03;7631176;32;38034;-78
2021/12/14 17:21:26;;;;;;;38.70;17.52;;;;;;;1.19;62.94;100843.16;7622899;32;39432;-77
2021/12/14 17:25:43;;;;;;;46.13;21.05;;;;;;;1.21;62.95;100863.47;7631484;32;40534;-77
2021/12/14 17:30:11;;;;;;;55.55;24.25;;;;;;;1.53;62.05;100855.22;7630672;32;38891;-86
2021/12/14 17:34:35;;;;;;;128.43;23.40;;;;;;;1.49;62.11;100857.44;7625444;32;38103;-76
2021/12/14 17:38:54;;;;;;;55.58;22.30;;;;;;;1.63;61.66;100861.97;7631014;32;40219;-78
2021/12/14 17:43:14;;;;;;;39.67;20.42;;;;;;;1.74;61.39;100854.44;7630876;32;40791;-76
2021/12/14 17:47:37;;;;;;;67.00;29.10;;;;;;;1.59;61.64;100851.78;7630998;32;38510;-76
2021/12/14 17:52:08;;;;;;;;;;;;;;;1.61;61.16;100871.25;7631859;32;37267;-76
2021/12/14 17:56:24;;;;;;;45.33;21.05;;;;;;;1.23;61.90;100876.72;7630900;32;39716;-76
2021/12/14 18:00:44;;;;;;;40.80;21.80;;;;;;;1.44;61.11;100871.44;7631044;32;40006;-76
2021/12/14 18:05:04;;;;;;;43.15;20.52;;;;;;;1.06;62.43;100876.03;7628824;32;37985;-75
2021/12/14 18:09:25;;;;;;;43.28;19.67;;;;;;;0.94;62.81;100878.31;7630349;32;38161;-76
2021/12/14 18:14:04;;;;;;;34.17;17.27;;;;;;;1.03;62.01;100881.75;7629333;32;39820;-79
2021/12/14 18:22:56;;;;;;;32.92;18.42;;;;;;;0.84;61.86;100893.84;7630519;32;37743;-77
2021/12/14 18:27:16;;;;;;;34.60;17.62;;;;;;;1.01;61.42;100900.75;7629913;32;37949;-79
2021/12/14 18:31:33;;;;;;;38.03;18.80;;;;;;;0.99;61.56;100897.41;7630207;32;40194;-77
2021/12/14 18:35:49;;;;;;;37.85;18.10;;;;;;;1.07;60.93;100900.03;7629663;32;40986;-78
2021/12/14 18:40:12;;;;;;;30.12;16.37;;;;;;;0.96;61.40;100903.12;7629752;32;37560;-76
2021/12/14 18:44:28;;;;;;;31.60;17.70;;;;;;;1.06;61.01;100903.72;7630038;32;37109;-76
2021/12/14 18:53:32;;;;;;;23.05;12.93;;;;;;;1.19;59.73;100907.63;7629349;32;40825;-76
2021/12/14 18:57:56;;;;;;;24.80;13.02;;;;;;;1.11;60.13;100912.06;7629445;32;37612;-76
2021/12/14 19:02:22;;;;;;;23.10;12.65;;;;;;;0.99;60.29;100892.03;7627994;32;37794;-78
2021/12/14 19:06:41;;;;;;;24.73;13.62;;;;;;;0.77;60.65;100901.78;7629031;32;39375;-77
2021/12/14 19:11:06;;;;;;;25.25;13.52;;;;;;;0.99;60.21;100896.59;7629157;32;39643;-77
2021/12/14 19:15:30;;;;;;;24.35;12.82;;;;;;;0.91;61.07;100889.41;7631330;32;37881;-77
2021/12/14 19:19:47;;;;;;;24.73;13.73;;;;;;;1.13;59.79;100896.59;7632836;32;37767;-77
2021/12/14 19:24:19;;;;;;;30.75;14.50;;;;;;;0.86;60.53;100886.44;7632629;32;39014;-77
2021/12/14 19:28:36;;;;;;;25.40;14.00;;;;;;;0.78;60.78;100899.91;7631590;32;39943;-77
2021/12/14 19:32:55;;;;;;;26.62;14.45;;;;;;;0.46;60.76;100896.47;7617082;32;38860;-77
2021/12/14 19:37:16;;;;;;;23.60;14.75;;;;;;;0.69;60.15;100888.41;7649959;32;37553;-77
2021/12/14 19:41:36;;;;;;;25.48;14.63;;;;;;;0.83;59.90;100892.16;7658571;32;39366;-78
2021/12/14 19:46:19;;;;;;;26.77;15.63;;;;;;;0.92;59.85;100889.25;7633865;32;40657;-77
2021/12/14 19:50:35;;;;;;;24.75;14.18;;;;;;;1.03;59.26;100892.50;7632718;32;38814;-77
2021/12/14 19:54:55;;;;;;;37.58;14.43;;;;;;;0.79;59.62;100891.69;7631978;32;37963;-77
2021/12/14 19:59:20;;;;;;;27.27;13.90;;;;;;;1.02;59.14;100891.69;7631491;32;39430;-78
2021/12/14 20:03:42;;;;;;;22.75;14.20;;;;;;;0.58;60.67;100894.22;7631916;32;40028;-77
2021/12/14 20:08:09;;;;;;;26.40;13.43;;;;;;;0.66;60.07;100891.50;7632410;32;38573;-77
2021/12/14 20:12:33;;;;;;;22.87;13.23;;;;;;;0.70;60.09;100898.16;7632370;32;36914;-77
2021/12/14 20:16:51;;;;;;;24.00;13.43;;;;;;;0.32;60.53;100906.97;7631718;32;40137;-78
2021/12/14 20:21:13;;;;;;;23.15;14.20;;;;;;;0.64;59.10;100902.41;7632331;32;40202;-78
2021/12/14 20:25:36;;;;;;;24.73;14.02;;;;;;;0.54;60.56;100902.63;7630632;32;38038;-77
2021/12/14 20:29:56;;;;;;;26.75;14.57;;;;;;;0.60;60.89;100903.75;7631268;32;37179;-79
2021/12/14 20:34:16;;;;;;;28.65;14.40;;;;;;;0.50;61.92;100906.69;7624302;32;39048;-78
2021/12/14 20:38:36;;;;;;;30.48;15.55;;;;;;;0.20;63.06;100913.75;7631749;32;40059;-77
2021/12/14 20:43:13;;;;;;;33.58;15.88;;;;;;;0.74;61.53;100921.78;7632193;32;37970;-78
2021/12/14 20:47:38;;;;;;;32.92;17.15;;;;;;;0.60;62.29;100924.41;7631677;32;37449;-78
2021/12/14 20:51:59;;;;;;;34.03;17.00;;;;;;;0.91;61.43;100933.22;7650874;32;39775;-77
2021/12/14 20:56:16;;;;;;;34.35;18.42;;;;;;;0.62;62.88;100925.91;7657528;32;40811;-77
2021/12/14 21:00:41;;;;;;;30.65;16.83;;;;;;;0.91;61.98;100943.13;7656329;32;38104;-77